This is the latest recevied weather packets stored in our database for station/object VE7OTD. If no packets are shown the sender has not sent any weather packets the latest 10 day(s).
| Time | Temp. | Humidity | Pressure | Rain* | Wind** | Luminosity | Snow |
|---|---|---|---|---|---|---|---|
| 1777959253 | 16.67° C | 58% | 1007.7 hPa | 0 mm | - | - | - |
| 1777957438 | 17.22° C | 53% | 1007.6 hPa | 0 mm | - | - | - |
| 1777955624 | 18.33° C | 50% | 1007.4 hPa | 0 mm | - | - | - |
| 1777953826 | 20° C | 44% | 1007.2 hPa | 0 mm | - | - | - |
| 1777951993 | 21.11° C | 41% | 1006.9 hPa | 0 mm | - | - | - |
| 1777950193 | 23.33° C | 43% | 1006.7 hPa | 0 mm | - | - | - |
| 1777948363 | 25° C | 35% | 1006.7 hPa | 0 mm | - | - | - |
| 1777946549 | 25.56° C | 33% | 1006.8 hPa | 0 mm | - | - | - |
| 1777944733 | 26.11° C | 32% | 1007.1 hPa | 0 mm | - | - | - |
| 1777942934 | 27.22° C | 37% | 1007.2 hPa | - | - | - | - |
| 1777941103 | 27.22° C | 37% | 1007.4 hPa | - | - | - | - |
| 1777939289 | 27.22° C | 37% | 1007.5 hPa | 0 mm | - | - | - |
| 1777937489 | 27.22° C | 37% | 1007.7 hPa | 0 mm | - | - | - |
| 1777935658 | 27.22° C | 40% | 1008 hPa | 0 mm | - | - | - |
| 1777933844 | 27.22° C | 40% | 1008.2 hPa | 0 mm | - | - | - |
| 1777932028 | 26.67° C | 41% | 1008.5 hPa | 0 mm | - | - | - |
| 1777930213 | 27.78° C | 38% | 1008.7 hPa | 0 mm | - | - | - |
| 1777928399 | 26.67° C | 40% | 1008.9 hPa | 0 mm | - | - | - |
| 1777926584 | 27.78° C | 38% | 1009.1 hPa | 0 mm | - | - | - |
| 1777924750 | 27.22° C | 37% | 1009.3 hPa | 0 mm | - | - | - |
| 1777922940 | 26.67° C | 38% | 1009.5 hPa | 0 mm | - | - | - |
| 1777921138 | 25.56° C | 40% | 1009.6 hPa | 0 mm | - | - | - |
| 1777919323 | 25.56° C | 34% | 1009.9 hPa | 0 mm | - | - | - |
| 1777917495 | 24.44° C | 39% | 1009.9 hPa | 0 mm | - | - | - |
| 1777915693 | 23.33° C | 42% | 1009.9 hPa | 0 mm | - | - | - |
* Rain latest hour (hover to see other rain measurements)
** Current wind speed in m/s (hover to see current wind gust speed)